Latest Weather Observations for Bulman

IDD60801

Issued at 9:31 am CST Tuesday 7 July 2015 (issued every 30 minutes, with the page automatically refreshed every 10 minutes)

About weather observations | Map of weather stations | Latest weather observations for NT | Other Formats
Station Details ID: 014627 Name: BULMAN Lat: -13.67 Lon: 134.34 Height: 103.4 m
Data from the previous 72 hours. | See also: Recent months for locations in Northern Territory
Date/Time
CST
Temp
°C
App
Temp
°C
Dew
Point
Rel
Hum
%
Delta-T
°C
Wind Press
QNH
hPa
Press
MSL
hPa
Rain
since 9 am
mm
Dir
 
Spd
km/h
Gust
km/h
Spd
kts
Gust
kts
07/09:30am 23.9 25.4 18.8 73 3.2 ESE 9 15 5 8 1017.0 1016.6 0.0
07/09:00am 22.6 24.4 18.8 79 2.4 ENE 7 13 4 7 1016.9 1016.5 0.0
07/08:30am 21.5 24.4 19.1 86 1.5 N 2 7 1 4 1016.5 1016.0 0.0
07/08:00am 19.0 22.0 18.5 97 0.3 CALM 0 0 0 0 1016.0 1015.6 0.0
07/07:30am 16.5 18.2 16.2 98 0.2 N 2 6 1 3 1015.8 1015.4 0.0
07/07:00am 15.9 16.5 15.4 97 0.3 S 6 6 3 3 1015.4 1015.0 0.0
07/06:30am 15.8 16.5 15.5 98 0.2 N 6 7 3 4 1015.1 1014.7 0.0
07/06:00am 15.9 17.6 15.3 96 0.3 CALM 0 0 0 0 1014.8 1014.4 0.0
07/05:30am 16.2 18.0 15.6 96 0.4 CALM 0 0 0 0 1014.6 1014.2 0.0
07/05:00am 16.5 18.5 15.9 96 0.4 CALM 0 0 0 0 1014.4 1014.0 0.0
07/04:30am 16.8 18.4 16.0 95 0.5 N 2 6 1 3 1014.1 1013.7 0.0
07/04:00am 17.0 19.1 16.2 95 0.5 CALM 0 0 0 0 1013.9 1013.5 0.0
07/03:30am 17.3 19.4 16.2 93 0.7 CALM 0 0 0 0 1013.8 1013.4 0.0
07/03:00am 17.9 20.3 16.9 94 0.6 CALM 0 0 0 0 1013.8 1013.4 0.0
07/02:30am 18.1 20.5 16.9 93 0.7 CALM 0 0 0 0 1013.9 1013.5 0.0
07/02:00am 18.8 21.3 17.3 91 0.9 CALM 0 0 0 0 1014.1 1013.7 0.0
07/01:30am 19.5 22.1 17.6 89 1.2 CALM 0 0 0 0 1014.2 1013.8 0.0
07/01:00am 20.4 23.2 18.0 86 1.5 CALM 0 0 0 0 1014.5 1014.1 0.0
07/12:30am 21.1 23.7 18.3 84 1.8 SE 2 7 1 4 1014.7 1014.3 0.0
07/12:00am 21.5 23.1 18.3 82 2.0 ESE 7 11 4 6 1014.8 1014.4 0.0
 
Date/Time
CST
Temp
°C
App
Temp
°C
Dew
Point
Rel
Hum
%
Delta-T
°C
Wind Press
QNH
hPa
Press
MSL
hPa
Rain
since 9 am
mm
Dir
 
Spd
km/h
Gust
km/h
Spd
kts
Gust
kts
06/11:30pm 22.0 22.9 18.4 80 2.3 ESE 11 19 6 10 1014.8 1014.4 0.0
06/11:00pm 22.4 23.4 18.6 79 2.4 ESE 11 17 6 9 1015.0 1014.6 0.0
06/10:30pm 22.7 23.6 18.3 76 2.8 ESE 11 19 6 10 1015.0 1014.6 0.0
06/10:00pm 23.3 23.8 18.4 74 3.1 ESE 13 22 7 12 1014.8 1014.4 0.0
06/09:30pm 23.8 23.8 18.2 71 3.5 ESE 15 22 8 12 1014.9 1014.5 0.0
06/09:00pm 24.5 24.5 18.0 67 4.1 SE 15 24 8 13 1014.7 1014.3 0.0
06/08:30pm 25.2 25.1 17.9 64 4.6 SE 15 22 8 12 1014.3 1013.9 0.0
06/08:00pm 26.1 25.3 17.2 58 5.6 ESE 17 26 9 14 1013.7 1013.3 0.0
06/07:30pm 27.1 26.8 14.5 46 7.6 ESE 9 15 5 8 1013.2 1012.8 0.0
06/07:00pm 27.8 26.8 12.2 38 9.1 ENE 9 17 5 9 1012.7 1012.3 0.0
06/06:30pm 28.3 27.7 12.2 37 9.4 ENE 7 11 4 6 1012.4 1012.0 0.0
06/06:00pm 29.2 28.2 12.2 35 10.0 NE 9 17 5 9 1012.0 1011.6 0.0
06/05:30pm 30.3 28.5 12.2 33 10.7 NNE 13 20 7 11 1011.7 1011.3 0.0
06/05:00pm 31.2 29.8 12.1 31 11.3 NE 11 17 6 9 1011.5 1011.1 0.0
06/04:30pm 30.4 28.9 11.9 32 10.9 ENE 11 17 6 9 1011.6 1011.2 0.0
06/04:00pm 30.6 28.9 11.1 30 11.3 E 11 20 6 11 1011.6 1011.2 0.0
06/03:30pm 32.1 30.4 11.3 28 12.2 NE 11 17 6 9 1011.7 1011.3 0.0
06/03:00pm 32.2 30.6 11.4 28 12.2 ENE 11 15 6 8 1011.8 1011.4 0.0
06/02:30pm 31.2 28.3 11.1 29 11.7 ENE 17 30 9 16 1012.1 1011.7 0.0
06/02:00pm 30.8 28.3 11.2 30 11.4 NE 15 26 8 14 1012.7 1012.3 0.0
06/01:30pm 30.5 28.0 11.0 30 11.3 ENE 15 24 8 13 1013.2 1012.8 0.0
06/01:00pm 31.1 29.0 11.0 29 11.7 ENE 13 26 7 14 1013.6 1013.2 0.0
06/12:30pm 31.5 28.5 11.8 30 11.6 ESE 19 26 10 14 1014.2 1013.8 0.0
06/12:00pm 30.3 27.8 12.2 33 10.7 E 17 28 9 15 1014.5 1014.1 0.0
06/11:30am 29.8 27.4 12.7 35 10.1 E 17 28 9 15 1014.8 1014.4 0.0
06/11:00am 29.0 28.3 15.5 44 8.3 E 13 20 7 11 1015.2 1014.8 0.0
06/10:30am 27.3 28.7 18.6 59 5.6 ESE 9 15 5 8 1015.6 1015.2 0.0
06/10:00am 26.1 26.7 18.5 63 4.9 ESE 13 17 7 9 1015.9 1015.5 0.0
06/09:30am 24.8 26.7 19.8 74 3.2 SE 9 15 5 8 1015.8 1015.4 0.0
06/09:00am 23.1 24.8 19.3 79 2.4 SE 9 13 5 7 1015.8 1015.4 0.0
06/08:30am 23.3 25.9 20.4 84 1.9 SE 7 11 4 6 1015.5 1015.1 0.0
06/08:00am 20.6 23.0 18.9 90 1.1 ESE 4 6 2 3 1015.4 1015.0 0.0
06/07:30am 18.1 20.7 17.5 96 0.4 CALM 0 0 0 0 1015.1 1014.7 0.0
06/07:00am 17.6 20.0 17.0 96 0.4 CALM 0 0 0 0 1014.9 1014.5 0.0
06/06:30am 17.3 19.5 16.5 95 0.5 CALM 0 2 0 1 1014.6 1014.2 0.0
06/06:00am 17.5 19.8 16.7 95 0.5 CALM 0 6 0 3 1014.5 1014.1 0.0
06/05:30am 17.6 19.8 16.6 94 0.6 CALM 0 0 0 0 1014.3 1013.9 0.0
06/05:00am 18.1 20.5 17.1 94 0.6 CALM 0 0 0 0 1014.2 1013.8 0.0
06/04:30am 18.0 19.7 17.2 95 0.5 SW 4 7 2 4 1014.1 1013.7 0.0
06/04:00am 17.6 19.8 16.6 94 0.6 CALM 0 0 0 0 1014.0 1013.6 0.0
06/03:30am 17.8 20.0 16.5 92 0.8 CALM 0 0 0 0 1013.7 1013.3 0.0
06/03:00am 18.3 20.7 17.0 92 0.8 CALM 0 0 0 0 1013.8 1013.4 0.0
06/02:30am 18.5 20.8 16.8 90 1.0 CALM 0 0 0 0 1014.2 1013.8 0.0
06/02:00am 18.6 19.8 16.9 90 1.0 WNW 6 7 3 4 1014.4 1014.0 0.0
06/01:30am 18.7 21.0 16.8 89 1.1 CALM 0 0 0 0 1014.5 1014.1 0.0
06/01:00am 19.0 21.3 16.8 87 1.3 CALM 0 0 0 0 1014.7 1014.3 0.0
06/12:30am 19.5 20.7 16.9 85 1.6 N 6 6 3 3 1014.8 1014.4 0.0
06/12:00am 20.5 22.5 16.9 80 2.2 S 2 6 1 3 1015.1 1014.7 0.0
 
Date/Time
CST
Temp
°C
App
Temp
°C
Dew
Point
Rel
Hum
%
Delta-T
°C
Wind Press
QNH
hPa
Press
MSL
hPa
Rain
since 9 am
mm
Dir
 
Spd
km/h
Gust
km/h
Spd
kts
Gust
kts
05/11:30pm 21.5 22.8 17.1 76 2.7 SE 6 7 3 4 1015.3 1014.9 0.0
05/11:00pm 22.6 24.0 17.3 72 3.3 ESE 6 11 3 6 1015.4 1015.0 0.0
05/10:30pm 23.5 23.9 17.3 68 3.8 ESE 11 17 6 9 1015.5 1015.1 0.0
05/10:00pm 24.0 24.2 16.8 64 4.4 ESE 11 17 6 9 1015.6 1015.2 0.0
05/09:30pm 24.7 24.9 16.7 61 4.9 ESE 11 17 6 9 1015.4 1015.0 0.0
05/09:00pm 25.2 25.1 16.1 57 5.6 ESE 11 20 6 11 1015.1 1014.7 0.0
05/08:30pm 24.5 24.5 15.1 55 5.7 ESE 9 13 5 7 1014.8 1014.4 0.0
05/08:00pm 24.4 24.9 15.1 56 5.6 ESE 6 7 3 4 1014.3 1013.9 0.0
05/07:30pm 24.2 24.8 15.4 58 5.3 SSE 6 17 3 9 1013.9 1013.5 0.0
05/07:00pm 24.3 24.8 15.0 56 5.6 SSE 6 7 3 4 1013.6 1013.2 0.0
05/06:30pm 26.0 26.5 15.1 51 6.6 SSE 6 9 3 5 1013.5 1013.1 0.0
05/06:00pm 27.0 26.8 14.7 47 7.4 ESE 9 15 5 8 1013.2 1012.8 0.0
05/05:30pm 27.8 26.9 14.8 45 7.9 SE 13 22 7 12 1013.1 1012.7 0.0
05/05:00pm 28.5 27.5 14.7 43 8.4 ESE 13 20 7 11 1012.9 1012.5 0.0
05/04:30pm 29.5 27.7 13.3 37 9.7 SE 15 24 8 13 1012.6 1012.2 0.0
05/04:00pm 30.1 28.3 13.4 36 10.0 SE 15 26 8 14 1012.7 1012.3 0.0
05/03:30pm 30.7 29.5 11.6 31 11.2 SSE 9 17 5 9 1012.7 1012.3 0.0
05/03:00pm 30.7 29.5 11.6 31 11.2 SE 9 15 5 8 1012.9 1012.5 0.0
05/02:30pm 30.7 28.7 11.6 31 11.2 SSE 13 20 7 11 1013.2 1012.8 0.0
05/02:00pm 31.4 30.2 11.7 29 11.6 ESE 9 17 5 9 1013.6 1013.2 0.0
05/01:30pm 29.8 28.1 11.3 32 10.7 SSE 11 20 6 11 1014.0 1013.6 0.0
05/01:00pm 29.6 28.5 12.1 34 10.3 SE 9 19 5 10 1014.5 1014.1 0.0
05/12:30pm 27.9 26.2 12.3 38 9.1 SSE 13 22 7 12 1015.1 1014.7 0.0
05/12:00pm 28.8 27.7 14.2 40 8.8 SE 13 20 7 11 1015.6 1015.2 0.0
05/11:30am 27.7 26.6 14.3 43 8.1 SE 13 20 7 11 1016.1 1015.7 0.0
05/11:00am 27.3 26.6 15.3 48 7.3 SE 13 20 7 11 1016.5 1016.0 0.0
05/10:30am 26.5 26.9 16.4 53 6.2 E 9 15 5 8 1016.6 1016.1 0.0
05/10:00am 25.2 26.2 17.7 63 4.7 ESE 9 15 5 8 1016.7 1016.2 0.0
05/09:30am 23.7 26.3 18.4 72 3.3 SE 2 9 1 5 1016.8 1016.3 0.0
05/09:00am 22.9 24.3 18.7 77 2.7 SSE 9 13 5 7 1016.7 1016.2 -
05/08:30am 21.2 22.6 18.6 85 1.6 SSW 9 13 5 7 1016.2 1015.8 -
05/08:00am 18.0 20.6 17.5 97 0.3 CALM 0 0 0 0 1016.0 1015.6 -
05/07:30am 15.4 17.0 14.9 97 0.3 CALM 0 0 0 0 1015.8 1015.4 -
05/07:00am 14.9 16.3 14.3 96 0.3 CALM 0 0 0 0 1015.5 1015.1 -
05/06:30am 15.3 16.7 14.5 95 0.5 CALM 0 0 0 0 1015.2 1014.8 -
05/06:00am 16.1 16.9 15.8 98 0.2 SSW 6 7 3 4 1015.1 1014.7 -
05/05:30am 15.6 17.2 14.8 95 0.5 CALM 0 0 0 0 1014.9 1014.5 -
05/05:00am 16.0 17.8 15.4 96 0.4 CALM 0 0 0 0 1014.9 1014.5 -
05/04:30am 16.1 17.8 15.1 94 0.6 CALM 0 0 0 0 1014.7 1014.3 -
05/04:00am 16.9 18.6 16.1 95 0.5 S 2 6 1 3 1014.6 1014.2 -
05/03:30am 17.1 18.4 16.1 94 0.6 NE 4 6 2 3 1014.7 1014.3 -
05/03:00am 17.3 18.3 16.3 94 0.6 N 6 7 3 4 1014.7 1014.3 -
05/02:30am 17.7 18.8 16.6 93 0.7 SSE 6 7 3 4 1014.7 1014.3 -
05/02:00am 18.1 19.3 16.8 92 0.8 SE 6 7 3 4 1014.7 1014.3 -
05/01:30am 18.3 20.5 16.6 90 1.0 CALM 0 0 0 0 1014.9 1014.5 -
05/01:00am 18.8 21.0 16.6 87 1.3 CALM 0 0 0 0 1014.9 1014.5 -
05/12:00am 19.8 20.8 16.3 80 2.1 SE 6 7 3 4 1015.1 1014.7 0.0
 
Date/Time
CST
Temp
°C
App
Temp
°C
Dew
Point
Rel
Hum
%
Delta-T
°C
Wind Press
QNH
hPa
Press
MSL
hPa
Rain
since 9 am
mm
Dir
 
Spd
km/h
Gust
km/h
Spd
kts
Gust
kts
04/11:30pm 20.6 21.5 16.2 76 2.7 ESE 6 7 3 4 1015.1 1014.7 0.0
04/11:00pm 21.5 22.2 16.2 72 3.2 ESE 7 13 4 7 1015.1 1014.7 0.0
04/10:30pm 22.0 22.7 16.1 69 3.6 ESE 7 11 4 6 1015.1 1014.7 0.0
04/10:00pm 22.5 22.7 15.8 66 4.0 ESE 9 13 5 7 1015.1 1014.7 0.0
04/09:30pm 21.9 22.2 14.5 63 4.4 SE 6 7 3 4 1015.1 1014.7 0.0
04/09:00pm 23.1 23.4 14.4 58 5.1 E 6 9 3 5 1014.7 1014.3 0.0
04/08:30pm 24.1 23.7 14.2 54 5.9 ESE 9 11 5 6 1014.4 1014.0 0.0
04/08:00pm 24.7 23.8 13.6 50 6.5 ESE 11 17 6 9 1013.9 1013.5 0.0
04/07:30pm 23.7 22.5 12.7 50 6.3 SE 11 20 6 11 1013.3 1012.9 0.0
04/07:00pm 22.8 22.8 11.2 48 6.5 SSE 2 7 1 4 1012.7 1012.3 0.0
04/06:30pm 24.7 24.8 10.2 40 8.0 CALM 0 0 0 0 1012.4 1012.0 0.0
04/06:00pm 27.8 27.6 9.1 31 10.4 CALM 0 0 0 0 1012.1 1011.7 0.0
04/05:30pm 29.5 27.8 8.5 27 11.6 ESE 7 11 4 6 1011.8 1011.4 0.0
04/05:00pm 30.4 28.7 8.2 25 12.3 E 7 13 4 7 1011.6 1011.2 0.0
04/04:30pm 30.5 28.3 7.7 24 12.5 E 9 15 5 8 1011.5 1011.1 0.0
04/04:00pm 30.6 28.5 8.3 25 12.3 ESE 9 17 5 9 1011.5 1011.1 0.0
04/03:30pm 30.6 28.5 8.3 25 12.4 SSE 9 19 5 10 1011.7 1011.3 0.0
04/03:00pm 30.5 28.3 7.7 24 12.5 SSE 9 17 5 9 1011.9 1011.5 0.0
04/02:30pm 30.3 27.8 8.1 25 12.2 ENE 11 19 6 10 1012.3 1011.9 0.0
04/02:00pm 29.7 27.1 7.6 25 12.0 SE 11 19 6 10 1012.7 1012.3 0.0
04/01:30pm 29.8 26.9 8.2 26 11.9 SE 13 19 7 10 1013.3 1012.9 0.0
04/01:00pm 29.1 26.7 8.7 28 11.3 SE 11 20 6 11 1013.9 1013.5 0.0
04/12:30pm 28.5 25.5 9.2 30 10.7 ESE 15 26 8 14 1014.6 1014.2 0.0
04/12:00pm 28.5 26.9 11.6 35 9.8 E 11 19 6 10 1015.3 1014.9 0.0
04/11:30am 27.3 24.8 10.9 36 9.3 ESE 15 24 8 13 1016.0 1015.6 0.0
04/11:00am 26.4 26.1 14.5 48 7.1 ENE 9 17 5 9 1016.6 1016.1 0.0
04/10:30am 24.6 23.6 15.5 57 5.5 ESE 15 24 8 13 1016.9 1016.5 0.0
04/10:00am 23.6 23.9 16.9 66 4.1 SE 11 15 6 8 1017.1 1016.7 0.0

Other Formats:

Comma delimited format used in spreadsheet applications
http://www.bom.gov.au/fwo/IDD60801/IDD60801.94143.axf

JavaScript Object Notation format (JSON) in row-major order
http://www.bom.gov.au/fwo/IDD60801/IDD60801.94143.json